sensor_id;sensor_type;location;lat;lon;timestamp;temperature;humidity
45619;DHT22;31343;47.520;19.144;2022-08-11T00:01:48;20.90;78.40
45619;DHT22;31343;47.520;19.144;2022-08-11T00:04:15;20.90;78.70
45619;DHT22;31343;47.520;19.144;2022-08-11T00:06:43;20.80;78.70
45619;DHT22;31343;47.520;19.144;2022-08-11T00:09:16;20.80;79.20
45619;DHT22;31343;47.520;19.144;2022-08-11T00:11:52;20.80;79.10
45619;DHT22;31343;47.520;19.144;2022-08-11T00:14:24;20.70;79.40
45619;DHT22;31343;47.520;19.144;2022-08-11T00:16:57;20.70;79.60
45619;DHT22;31343;47.520;19.144;2022-08-11T00:19:37;20.60;80.10
45619;DHT22;31343;47.520;19.144;2022-08-11T00:22:05;20.50;80.60
45619;DHT22;31343;47.520;19.144;2022-08-11T00:24:36;20.40;81.00
45619;DHT22;31343;47.520;19.144;2022-08-11T00:27:03;20.50;81.20
45619;DHT22;31343;47.520;19.144;2022-08-11T00:29:30;20.40;81.50
45619;DHT22;31343;47.520;19.144;2022-08-11T00:31:59;20.50;81.40
45619;DHT22;31343;47.520;19.144;2022-08-11T00:34:32;20.40;81.10
45619;DHT22;31343;47.520;19.144;2022-08-11T00:37:03;20.30;81.60
45619;DHT22;31343;47.520;19.144;2022-08-11T00:39:32;20.30;81.80
45619;DHT22;31343;47.520;19.144;2022-08-11T01:13:05;19.70;85.30
45619;DHT22;31343;47.520;19.144;2022-08-11T01:16:07;19.70;85.70
45619;DHT22;31343;47.520;19.144;2022-08-11T01:21:45;19.50;87.10
45619;DHT22;31343;47.520;19.144;2022-08-11T01:30:16;19.40;87.50
45619;DHT22;31343;47.520;19.144;2022-08-11T01:33:12;19.40;88.00
45619;DHT22;31343;47.520;19.144;2022-08-11T01:41:45;19.40;89.20
45619;DHT22;31343;47.520;19.144;2022-08-11T01:47:25;19.50;89.90
45619;DHT22;31343;47.520;19.144;2022-08-11T01:53:18;19.50;90.20
45619;DHT22;31343;47.520;19.144;2022-08-11T02:15:55;19.50;90.90
45619;DHT22;31343;47.520;19.144;2022-08-11T02:18:36;19.40;90.90
45619;DHT22;31343;47.520;19.144;2022-08-11T02:21:30;19.40;91.00
45619;DHT22;31343;47.520;19.144;2022-08-11T02:24:30;19.50;91.00
45619;DHT22;31343;47.520;19.144;2022-08-11T02:27:08;19.50;91.10
45619;DHT22;31343;47.520;19.144;2022-08-11T02:30:06;19.60;90.90
45619;DHT22;31343;47.520;19.144;2022-08-11T02:32:54;19.60;91.10
45619;DHT22;31343;47.520;19.144;2022-08-11T02:47:26;19.80;90.70
45619;DHT22;31343;47.520;19.144;2022-08-11T02:50:18;19.80;90.70
45619;DHT22;31343;47.520;19.144;2022-08-11T02:55:40;19.80;90.50
45619;DHT22;31343;47.520;19.144;2022-08-11T02:58:15;19.80;90.50
45619;DHT22;31343;47.520;19.144;2022-08-11T03:00:52;19.80;90.50
45619;DHT22;31343;47.520;19.144;2022-08-11T03:03:21;19.80;90.50
45619;DHT22;31343;47.520;19.144;2022-08-11T03:05:59;19.80;90.50
45619;DHT22;31343;47.520;19.144;2022-08-11T03:08:39;19.80;90.40
45619;DHT22;31343;47.520;19.144;2022-08-11T03:11:25;19.90;90.20
45619;DHT22;31343;47.520;19.144;2022-08-11T03:14:38;19.90;90.20
45619;DHT22;31343;47.520;19.144;2022-08-11T03:17:36;19.90;90.30
45619;DHT22;31343;47.520;19.144;2022-08-11T03:29:05;19.60;90.60
45619;DHT22;31343;47.520;19.144;2022-08-11T03:31:46;19.70;91.10
45619;DHT22;31343;47.520;19.144;2022-08-11T03:34:22;19.70;90.80
45619;DHT22;31343;47.520;19.144;2022-08-11T03:36:58;19.70;90.80
45619;DHT22;31343;47.520;19.144;2022-08-11T03:40:12;19.80;90.60
45619;DHT22;31343;47.520;19.144;2022-08-11T03:43:00;19.80;90.80
45619;DHT22;31343;47.520;19.144;2022-08-11T03:45:33;19.70;90.70
45619;DHT22;31343;47.520;19.144;2022-08-11T03:50:55;19.60;91.00
45619;DHT22;31343;47.520;19.144;2022-08-11T04:16:40;19.60;91.50
45619;DHT22;31343;47.520;19.144;2022-08-11T04:19:28;19.60;91.70
45619;DHT22;31343;47.520;19.144;2022-08-11T04:24:45;19.70;91.70
45619;DHT22;31343;47.520;19.144;2022-08-11T04:30:13;19.80;91.30
45619;DHT22;31343;47.520;19.144;2022-08-11T04:35:58;19.90;91.10
45619;DHT22;31343;47.520;19.144;2022-08-11T04:38:48;20.00;91.10
45619;DHT22;31343;47.520;19.144;2022-08-11T05:07:41;20.60;90.50
45619;DHT22;31343;47.520;19.144;2022-08-11T05:13:01;21.70;87.00
45619;DHT22;31343;47.520;19.144;2022-08-11T05:15:52;22.00;85.80
45619;DHT22;31343;47.520;19.144;2022-08-11T05:18:51;22.40;84.90
45619;DHT22;31343;47.520;19.144;2022-08-11T05:21:38;23.20;83.70
45619;DHT22;31343;47.520;19.144;2022-08-11T05:24:28;23.80;80.70
45619;DHT22;31343;47.520;19.144;2022-08-11T05:27:14;24.20;80.00
45619;DHT22;31343;47.520;19.144;2022-08-11T05:30:06;24.70;78.40
45619;DHT22;31343;47.520;19.144;2022-08-11T05:33:09;25.10;76.40
45619;DHT22;31343;47.520;19.144;2022-08-11T05:36:05;26.00;74.90
45619;DHT22;31343;47.520;19.144;2022-08-11T05:38:35;26.30;74.10
45619;DHT22;31343;47.520;19.144;2022-08-11T05:41:23;26.50;72.90
45619;DHT22;31343;47.520;19.144;2022-08-11T05:44:09;26.90;72.00
45619;DHT22;31343;47.520;19.144;2022-08-11T05:46:54;26.90;71.70
45619;DHT22;31343;47.520;19.144;2022-08-11T05:49:38;26.70;71.30
45619;DHT22;31343;47.520;19.144;2022-08-11T05:52:25;26.70;71.30
45619;DHT22;31343;47.520;19.144;2022-08-11T05:55:10;26.90;71.00
45619;DHT22;31343;47.520;19.144;2022-08-11T05:57:59;26.60;71.20
45619;DHT22;31343;47.520;19.144;2022-08-11T06:00:26;26.40;71.00
45619;DHT22;31343;47.520;19.144;2022-08-11T06:03:00;26.60;71.70
45619;DHT22;31343;47.520;19.144;2022-08-11T06:05:39;26.90;72.00
45619;DHT22;31343;47.520;19.144;2022-08-11T06:08:07;27.90;70.00
45619;DHT22;31343;47.520;19.144;2022-08-11T06:10:37;28.70;68.30
45619;DHT22;31343;47.520;19.144;2022-08-11T06:13:06;28.70;67.80
45619;DHT22;31343;47.520;19.144;2022-08-11T06:15:33;28.90;67.50
45619;DHT22;31343;47.520;19.144;2022-08-11T06:18:09;29.00;67.40
45619;DHT22;31343;47.520;19.144;2022-08-11T06:20:52;29.10;66.80
45619;DHT22;31343;47.520;19.144;2022-08-11T06:23:22;29.70;67.20
45619;DHT22;31343;47.520;19.144;2022-08-11T06:25:50;29.60;66.10
45619;DHT22;31343;47.520;19.144;2022-08-11T06:28:18;29.70;65.60
45619;DHT22;31343;47.520;19.144;2022-08-11T06:30:55;30.20;66.00
45619;DHT22;31343;47.520;19.144;2022-08-11T06:36:21;30.60;63.00
45619;DHT22;31343;47.520;19.144;2022-08-11T06:41:52;31.90;62.40
45619;DHT22;31343;47.520;19.144;2022-08-11T06:44:31;33.20;59.70
45619;DHT22;31343;47.520;19.144;2022-08-11T06:47:06;33.40;59.20
45619;DHT22;31343;47.520;19.144;2022-08-11T06:49:41;33.80;58.80
45619;DHT22;31343;47.520;19.144;2022-08-11T06:52:28;33.20;57.80
45619;DHT22;31343;47.520;19.144;2022-08-11T06:54:55;33.10;58.50
45619;DHT22;31343;47.520;19.144;2022-08-11T06:57:34;33.50;58.10
45619;DHT22;31343;47.520;19.144;2022-08-11T07:00:20;34.50;57.30
45619;DHT22;31343;47.520;19.144;2022-08-11T07:05:21;34.30;56.00
45619;DHT22;31343;47.520;19.144;2022-08-11T07:10:46;34.50;56.00
45619;DHT22;31343;47.520;19.144;2022-08-11T07:13:36;35.30;55.30
45619;DHT22;31343;47.520;19.144;2022-08-11T07:16:28;35.50;54.20
45619;DHT22;31343;47.520;19.144;2022-08-11T07:19:08;35.80;54.10
45619;DHT22;31343;47.520;19.144;2022-08-11T07:21:54;36.00;54.40
45619;DHT22;31343;47.520;19.144;2022-08-11T07:24:56;36.80;53.10
45619;DHT22;31343;47.520;19.144;2022-08-11T07:27:59;35.90;53.00
45619;DHT22;31343;47.520;19.144;2022-08-11T07:30:46;36.60;52.90
45619;DHT22;31343;47.520;19.144;2022-08-11T07:33:13;35.70;51.90
45619;DHT22;31343;47.520;19.144;2022-08-11T07:35:52;36.50;51.90
45619;DHT22;31343;47.520;19.144;2022-08-11T07:38:31;37.00;51.70
45619;DHT22;31343;47.520;19.144;2022-08-11T07:41:13;36.20;51.60
45619;DHT22;31343;47.520;19.144;2022-08-11T07:43:41;36.40;51.60
45619;DHT22;31343;47.520;19.144;2022-08-11T07:46:07;36.00;50.70
45619;DHT22;31343;47.520;19.144;2022-08-11T07:48:54;36.00;51.70
45619;DHT22;31343;47.520;19.144;2022-08-11T07:51:41;35.40;50.80
45619;DHT22;31343;47.520;19.144;2022-08-11T07:54:26;35.20;52.20
45619;DHT22;31343;47.520;19.144;2022-08-11T07:56:53;35.20;52.40
45619;DHT22;31343;47.520;19.144;2022-08-11T07:59:20;34.80;51.90
45619;DHT22;31343;47.520;19.144;2022-08-11T08:02:05;33.30;52.70
45619;DHT22;31343;47.520;19.144;2022-08-11T08:04:51;32.40;53.80
45619;DHT22;31343;47.520;19.144;2022-08-11T08:07:36;31.90;55.30
45619;DHT22;31343;47.520;19.144;2022-08-11T08:10:21;31.90;55.90
45619;DHT22;31343;47.520;19.144;2022-08-11T08:13:06;32.40;54.90
45619;DHT22;31343;47.520;19.144;2022-08-11T08:15:52;33.00;54.90
45619;DHT22;31343;47.520;19.144;2022-08-11T08:18:37;33.30;53.90
45619;DHT22;31343;47.520;19.144;2022-08-11T08:21:04;33.50;52.90
45619;DHT22;31343;47.520;19.144;2022-08-11T08:23:38;33.30;52.60
45619;DHT22;31343;47.520;19.144;2022-08-11T08:26:09;33.10;53.20
45619;DHT22;31343;47.520;19.144;2022-08-11T08:28:57;32.80;52.00
45619;DHT22;31343;47.520;19.144;2022-08-11T08:31:44;32.20;52.30
45619;DHT22;31343;47.520;19.144;2022-08-11T08:34:12;31.90;53.10
45619;DHT22;31343;47.520;19.144;2022-08-11T08:36:41;31.80;53.40
45619;DHT22;31343;47.520;19.144;2022-08-11T08:39:07;31.40;52.60
45619;DHT22;31343;47.520;19.144;2022-08-11T08:41:35;31.40;53.10
45619;DHT22;31343;47.520;19.144;2022-08-11T08:44:07;31.60;52.90
45619;DHT22;31343;47.520;19.144;2022-08-11T08:46:41;31.50;53.80
45619;DHT22;31343;47.520;19.144;2022-08-11T08:49:09;31.00;52.90
45619;DHT22;31343;47.520;19.144;2022-08-11T08:51:39;30.60;53.90
45619;DHT22;31343;47.520;19.144;2022-08-11T08:54:35;30.50;54.50
45619;DHT22;31343;47.520;19.144;2022-08-11T08:57:03;30.60;55.00
45619;DHT22;31343;47.520;19.144;2022-08-11T08:59:31;30.30;54.70
45619;DHT22;31343;47.520;19.144;2022-08-11T09:02:00;30.00;55.20
45619;DHT22;31343;47.520;19.144;2022-08-11T09:04:26;29.90;54.50
45619;DHT22;31343;47.520;19.144;2022-08-11T09:06:57;29.80;54.80
45619;DHT22;31343;47.520;19.144;2022-08-11T09:09:24;29.70;55.90
45619;DHT22;31343;47.520;19.144;2022-08-11T09:11:51;29.90;56.20
45619;DHT22;31343;47.520;19.144;2022-08-11T09:14:22;29.40;53.90
45619;DHT22;31343;47.520;19.144;2022-08-11T09:16:50;29.70;55.90
45619;DHT22;31343;47.520;19.144;2022-08-11T09:19:18;29.60;54.70
45619;DHT22;31343;47.520;19.144;2022-08-11T09:21:47;29.80;54.30
45619;DHT22;31343;47.520;19.144;2022-08-11T09:24:33;29.90;54.20
45619;DHT22;31343;47.520;19.144;2022-08-11T09:27:19;30.20;53.70
45619;DHT22;31343;47.520;19.144;2022-08-11T09:29:45;30.10;53.00
45619;DHT22;31343;47.520;19.144;2022-08-11T09:32:11;30.20;52.40
45619;DHT22;31343;47.520;19.144;2022-08-11T09:34:39;30.30;53.50
45619;DHT22;31343;47.520;19.144;2022-08-11T09:37:06;30.50;53.20
45619;DHT22;31343;47.520;19.144;2022-08-11T09:39:53;30.40;53.40
45619;DHT22;31343;47.520;19.144;2022-08-11T09:42:39;30.00;52.00
45619;DHT22;31343;47.520;19.144;2022-08-11T09:45:24;29.60;53.10
45619;DHT22;31343;47.520;19.144;2022-08-11T09:47:50;29.50;53.60
45619;DHT22;31343;47.520;19.144;2022-08-11T09:50:17;29.20;53.20
45619;DHT22;31343;47.520;19.144;2022-08-11T09:52:44;28.60;53.20
45619;DHT22;31343;47.520;19.144;2022-08-11T09:55:13;28.70;54.10
45619;DHT22;31343;47.520;19.144;2022-08-11T09:57:44;28.70;53.40
45619;DHT22;31343;47.520;19.144;2022-08-11T10:00:30;28.70;54.00
45619;DHT22;31343;47.520;19.144;2022-08-11T10:02:57;28.70;53.50
45619;DHT22;31343;47.520;19.144;2022-08-11T10:05:27;28.90;53.50
45619;DHT22;31343;47.520;19.144;2022-08-11T10:08:16;29.30;55.90
45619;DHT22;31343;47.520;19.144;2022-08-11T10:10:44;29.70;56.20
45619;DHT22;31343;47.520;19.144;2022-08-11T10:13:18;29.70;56.50
45619;DHT22;31343;47.520;19.144;2022-08-11T10:15:46;29.50;55.50
45619;DHT22;31343;47.520;19.144;2022-08-11T10:18:15;29.40;55.50
45619;DHT22;31343;47.520;19.144;2022-08-11T10:21:05;29.40;56.40
45619;DHT22;31343;47.520;19.144;2022-08-11T10:23:33;29.60;56.50
45619;DHT22;31343;47.520;19.144;2022-08-11T10:26:19;29.80;56.10
45619;DHT22;31343;47.520;19.144;2022-08-11T10:29:05;29.70;55.20
45619;DHT22;31343;47.520;19.144;2022-08-11T10:31:55;29.80;55.50
45619;DHT22;31343;47.520;19.144;2022-08-11T10:34:40;29.80;56.30
45619;DHT22;31343;47.520;19.144;2022-08-11T10:37:07;29.60;56.20
45619;DHT22;31343;47.520;19.144;2022-08-11T10:39:33;29.50;55.50
45619;DHT22;31343;47.520;19.144;2022-08-11T10:42:00;29.40;54.90
45619;DHT22;31343;47.520;19.144;2022-08-11T10:44:53;29.20;55.20
45619;DHT22;31343;47.520;19.144;2022-08-11T10:47:20;29.00;56.00
45619;DHT22;31343;47.520;19.144;2022-08-11T10:50:11;29.00;55.80
45619;DHT22;31343;47.520;19.144;2022-08-11T10:52:58;29.20;55.60
45619;DHT22;31343;47.520;19.144;2022-08-11T10:55:44;29.60;55.40
45619;DHT22;31343;47.520;19.144;2022-08-11T10:58:30;30.10;55.10
45619;DHT22;31343;47.520;19.144;2022-08-11T11:01:23;30.10;53.60
45619;DHT22;31343;47.520;19.144;2022-08-11T11:04:14;30.20;53.70
45619;DHT22;31343;47.520;19.144;2022-08-11T11:08:00;30.40;54.40
45619;DHT22;31343;47.520;19.144;2022-08-11T11:09:57;31.00;54.90
45619;DHT22;31343;47.520;19.144;2022-08-11T11:12:27;32.10;53.20
45619;DHT22;31343;47.520;19.144;2022-08-11T11:15:15;32.00;52.60
45619;DHT22;31343;47.520;19.144;2022-08-11T11:18:08;31.70;52.30
45619;DHT22;31343;47.520;19.144;2022-08-11T11:26:01;30.90;52.40
45619;DHT22;31343;47.520;19.144;2022-08-11T11:28:49;31.20;52.30
45619;DHT22;31343;47.520;19.144;2022-08-11T11:31:39;31.70;52.60
45619;DHT22;31343;47.520;19.144;2022-08-11T11:36:50;31.80;51.10
45619;DHT22;31343;47.520;19.144;2022-08-11T11:39:21;31.40;51.70
45619;DHT22;31343;47.520;19.144;2022-08-11T11:41:49;30.80;52.80
45619;DHT22;31343;47.520;19.144;2022-08-11T11:44:16;30.60;51.80
45619;DHT22;31343;47.520;19.144;2022-08-11T11:46:43;30.40;52.10
45619;DHT22;31343;47.520;19.144;2022-08-11T11:49:11;30.20;51.80
45619;DHT22;31343;47.520;19.144;2022-08-11T11:51:37;30.20;52.10
45619;DHT22;31343;47.520;19.144;2022-08-11T11:54:04;30.30;52.00
45619;DHT22;31343;47.520;19.144;2022-08-11T11:56:31;30.20;51.50
45619;DHT22;31343;47.520;19.144;2022-08-11T11:58:57;30.30;52.00
45619;DHT22;31343;47.520;19.144;2022-08-11T12:01:42;29.80;51.00
45619;DHT22;31343;47.520;19.144;2022-08-11T12:04:10;29.80;51.00
45619;DHT22;31343;47.520;19.144;2022-08-11T12:06:38;30.00;51.40
45619;DHT22;31343;47.520;19.144;2022-08-11T12:09:05;31.10;51.90
45619;DHT22;31343;47.520;19.144;2022-08-11T12:11:31;31.70;50.90
45619;DHT22;31343;47.520;19.144;2022-08-11T12:14:18;33.00;51.10
45619;DHT22;31343;47.520;19.144;2022-08-11T12:16:45;34.00;49.70
45619;DHT22;31343;47.520;19.144;2022-08-11T12:19:17;34.60;48.30
45619;DHT22;31343;47.520;19.144;2022-08-11T12:21:43;34.50;48.00
45619;DHT22;31343;47.520;19.144;2022-08-11T12:24:30;34.40;49.20
45619;DHT22;31343;47.520;19.144;2022-08-11T12:27:15;34.40;49.00
45619;DHT22;31343;47.520;19.144;2022-08-11T12:29:53;34.20;48.60
45619;DHT22;31343;47.520;19.144;2022-08-11T12:32:20;33.60;47.70
45619;DHT22;31343;47.520;19.144;2022-08-11T12:34:47;32.50;49.50
45619;DHT22;31343;47.520;19.144;2022-08-11T12:37:15;32.10;50.30
45619;DHT22;31343;47.520;19.144;2022-08-11T12:39:46;32.00;51.00
45619;DHT22;31343;47.520;19.144;2022-08-11T12:42:33;31.80;51.20
45619;DHT22;31343;47.520;19.144;2022-08-11T12:45:23;31.60;51.40
45619;DHT22;31343;47.520;19.144;2022-08-11T12:48:00;31.60;51.30
45619;DHT22;31343;47.520;19.144;2022-08-11T12:50:50;31.60;50.20
45619;DHT22;31343;47.520;19.144;2022-08-11T12:53:39;31.60;51.60
45619;DHT22;31343;47.520;19.144;2022-08-11T12:56:06;32.20;51.30
45619;DHT22;31343;47.520;19.144;2022-08-11T12:58:51;32.80;50.30
45619;DHT22;31343;47.520;19.144;2022-08-11T13:01:18;33.00;50.00
45619;DHT22;31343;47.520;19.144;2022-08-11T13:04:04;33.10;49.60
45619;DHT22;31343;47.520;19.144;2022-08-11T13:06:49;32.60;49.30
45619;DHT22;31343;47.520;19.144;2022-08-11T13:09:15;32.10;49.90
45619;DHT22;31343;47.520;19.144;2022-08-11T13:11:43;31.90;49.70
45619;DHT22;31343;47.520;19.144;2022-08-11T13:14:29;31.30;50.00
45619;DHT22;31343;47.520;19.144;2022-08-11T13:16:59;31.00;51.00
45619;DHT22;31343;47.520;19.144;2022-08-11T13:19:46;30.60;51.20
45619;DHT22;31343;47.520;19.144;2022-08-11T13:22:16;30.40;51.40
45619;DHT22;31343;47.520;19.144;2022-08-11T13:24:43;30.30;52.50
45619;DHT22;31343;47.520;19.144;2022-08-11T13:27:09;30.30;52.20
45619;DHT22;31343;47.520;19.144;2022-08-11T13:29:37;30.30;51.70
45619;DHT22;31343;47.520;19.144;2022-08-11T13:32:06;30.40;52.80
45619;DHT22;31343;47.520;19.144;2022-08-11T13:34:33;30.60;51.70
45619;DHT22;31343;47.520;19.144;2022-08-11T13:37:07;30.60;51.60
45619;DHT22;31343;47.520;19.144;2022-08-11T13:39:36;30.70;52.90
45619;DHT22;31343;47.520;19.144;2022-08-11T13:42:03;30.70;52.70
45619;DHT22;31343;47.520;19.144;2022-08-11T13:44:32;30.70;53.80
45619;DHT22;31343;47.520;19.144;2022-08-11T13:47:01;30.60;53.50
45619;DHT22;31343;47.520;19.144;2022-08-11T13:49:30;30.60;53.90
45619;DHT22;31343;47.520;19.144;2022-08-11T13:51:56;30.50;54.10
45619;DHT22;31343;47.520;19.144;2022-08-11T13:54:41;30.50;54.40
45619;DHT22;31343;47.520;19.144;2022-08-11T13:57:08;30.30;54.50
45619;DHT22;31343;47.520;19.144;2022-08-11T13:59:37;30.30;53.80
45619;DHT22;31343;47.520;19.144;2022-08-11T14:02:06;30.20;54.60
45619;DHT22;31343;47.520;19.144;2022-08-11T14:04:55;30.10;54.40
45619;DHT22;31343;47.520;19.144;2022-08-11T14:07:24;30.00;54.60
45619;DHT22;31343;47.520;19.144;2022-08-11T14:09:57;29.90;54.30
45619;DHT22;31343;47.520;19.144;2022-08-11T14:12:26;29.50;55.10
45619;DHT22;31343;47.520;19.144;2022-08-11T14:15:22;29.50;55.50
45619;DHT22;31343;47.520;19.144;2022-08-11T14:18:04;29.60;55.20
45619;DHT22;31343;47.520;19.144;2022-08-11T14:20:40;29.70;55.00
45619;DHT22;31343;47.520;19.144;2022-08-11T14:23:34;29.30;54.80
45619;DHT22;31343;47.520;19.144;2022-08-11T14:26:02;29.30;53.90
45619;DHT22;31343;47.520;19.144;2022-08-11T14:28:46;29.30;54.40
45619;DHT22;31343;47.520;19.144;2022-08-11T14:31:15;29.30;54.30
45619;DHT22;31343;47.520;19.144;2022-08-11T14:33:42;29.20;53.10
45619;DHT22;31343;47.520;19.144;2022-08-11T14:36:10;29.20;52.40
45619;DHT22;31343;47.520;19.144;2022-08-11T14:38:38;29.20;52.30
45619;DHT22;31343;47.520;19.144;2022-08-11T14:41:05;29.00;53.20
45619;DHT22;31343;47.520;19.144;2022-08-11T14:43:50;29.10;53.80
45619;DHT22;31343;47.520;19.144;2022-08-11T14:46:35;29.10;54.40
45619;DHT22;31343;47.520;19.144;2022-08-11T14:49:21;29.10;54.40
45619;DHT22;31343;47.520;19.144;2022-08-11T14:51:47;29.10;54.40
45619;DHT22;31343;47.520;19.144;2022-08-11T14:54:14;29.20;54.40
45619;DHT22;31343;47.520;19.144;2022-08-11T14:57:00;29.30;55.30
45619;DHT22;31343;47.520;19.144;2022-08-11T14:59:28;29.20;54.70
45619;DHT22;31343;47.520;19.144;2022-08-11T15:01:54;29.20;54.70
45619;DHT22;31343;47.520;19.144;2022-08-11T15:04:39;29.00;54.40
45619;DHT22;31343;47.520;19.144;2022-08-11T15:07:05;29.10;54.50
45619;DHT22;31343;47.520;19.144;2022-08-11T15:09:31;29.00;54.90
45619;DHT22;31343;47.520;19.144;2022-08-11T15:11:58;28.90;54.40
45619;DHT22;31343;47.520;19.144;2022-08-11T15:14:34;28.80;54.90
45619;DHT22;31343;47.520;19.144;2022-08-11T15:17:20;28.80;54.70
45619;DHT22;31343;47.520;19.144;2022-08-11T15:19:47;28.60;55.20
45619;DHT22;31343;47.520;19.144;2022-08-11T15:22:32;28.60;55.20
45619;DHT22;31343;47.520;19.144;2022-08-11T15:25:16;28.40;55.10
45619;DHT22;31343;47.520;19.144;2022-08-11T15:27:46;28.30;55.30
45619;DHT22;31343;47.520;19.144;2022-08-11T15:30:32;28.30;55.80
45619;DHT22;31343;47.520;19.144;2022-08-11T15:33:18;28.20;55.90
45619;DHT22;31343;47.520;19.144;2022-08-11T15:36:06;28.10;55.70
45619;DHT22;31343;47.520;19.144;2022-08-11T15:39:07;28.00;56.10
45619;DHT22;31343;47.520;19.144;2022-08-11T15:41:59;27.90;56.20
45619;DHT22;31343;47.520;19.144;2022-08-11T15:44:53;27.80;56.50
45619;DHT22;31343;47.520;19.144;2022-08-11T15:47:54;27.80;56.40
45619;DHT22;31343;47.520;19.144;2022-08-11T15:50:26;27.70;57.20
45619;DHT22;31343;47.520;19.144;2022-08-11T15:53:31;27.70;57.60
45619;DHT22;31343;47.520;19.144;2022-08-11T15:55:58;27.50;58.20
45619;DHT22;31343;47.520;19.144;2022-08-11T15:58:27;27.50;58.10
45619;DHT22;31343;47.520;19.144;2022-08-11T16:01:14;27.40;57.70
45619;DHT22;31343;47.520;19.144;2022-08-11T16:04:06;27.30;58.80
45619;DHT22;31343;47.520;19.144;2022-08-11T16:09:35;27.00;58.40
45619;DHT22;31343;47.520;19.144;2022-08-11T16:12:05;26.80;58.90
45619;DHT22;31343;47.520;19.144;2022-08-11T16:14:36;26.70;59.10
45619;DHT22;31343;47.520;19.144;2022-08-11T16:17:49;26.70;59.30
45619;DHT22;31343;47.520;19.144;2022-08-11T16:20:18;26.70;59.70
45619;DHT22;31343;47.520;19.144;2022-08-11T16:22:46;26.60;59.00
45619;DHT22;31343;47.520;19.144;2022-08-11T16:25:23;26.50;58.70
45619;DHT22;31343;47.520;19.144;2022-08-11T16:27:52;26.40;58.90
45619;DHT22;31343;47.520;19.144;2022-08-11T16:30:19;26.30;59.00
45619;DHT22;31343;47.520;19.144;2022-08-11T16:32:48;26.30;59.10
45619;DHT22;31343;47.520;19.144;2022-08-11T16:35:20;26.40;59.10
45619;DHT22;31343;47.520;19.144;2022-08-11T16:38:06;26.50;59.60
45619;DHT22;31343;47.520;19.144;2022-08-11T16:40:53;26.40;59.50
45619;DHT22;31343;47.520;19.144;2022-08-11T16:43:22;26.50;59.40
45619;DHT22;31343;47.520;19.144;2022-08-11T16:46:07;26.50;59.40
45619;DHT22;31343;47.520;19.144;2022-08-11T16:48:53;26.50;60.50
45619;DHT22;31343;47.520;19.144;2022-08-11T16:51:20;26.50;59.80
45619;DHT22;31343;47.520;19.144;2022-08-11T16:53:48;26.50;59.60
45619;DHT22;31343;47.520;19.144;2022-08-11T16:56:18;26.50;60.60
45619;DHT22;31343;47.520;19.144;2022-08-11T16:58:48;26.50;61.20
45619;DHT22;31343;47.520;19.144;2022-08-11T17:01:33;26.50;60.70
45619;DHT22;31343;47.520;19.144;2022-08-11T17:04:12;26.40;61.00
45619;DHT22;31343;47.520;19.144;2022-08-11T17:06:59;26.40;61.10
45619;DHT22;31343;47.520;19.144;2022-08-11T17:09:45;26.40;61.00
45619;DHT22;31343;47.520;19.144;2022-08-11T17:12:31;26.40;59.50
45619;DHT22;31343;47.520;19.144;2022-08-11T17:15:18;26.30;60.30
45619;DHT22;31343;47.520;19.144;2022-08-11T17:18:05;26.20;60.90
45619;DHT22;31343;47.520;19.144;2022-08-11T17:20:33;25.90;61.90
45619;DHT22;31343;47.520;19.144;2022-08-11T17:23:01;25.90;62.50
45619;DHT22;31343;47.520;19.144;2022-08-11T17:25:47;25.70;63.10
45619;DHT22;31343;47.520;19.144;2022-08-11T17:28:14;25.60;63.60
45619;DHT22;31343;47.520;19.144;2022-08-11T17:30:42;25.40;64.20
45619;DHT22;31343;47.520;19.144;2022-08-11T17:33:27;25.30;64.30
45619;DHT22;31343;47.520;19.144;2022-08-11T17:36:14;25.10;64.70
45619;DHT22;31343;47.520;19.144;2022-08-11T17:38:43;25.00;65.30
45619;DHT22;31343;47.520;19.144;2022-08-11T17:41:11;24.90;65.40
45619;DHT22;31343;47.520;19.144;2022-08-11T17:43:57;24.80;65.90
45619;DHT22;31343;47.520;19.144;2022-08-11T17:46:43;24.50;66.10
45619;DHT22;31343;47.520;19.144;2022-08-11T17:49:29;24.40;66.60
45619;DHT22;31343;47.520;19.144;2022-08-11T17:52:02;24.20;67.30
45619;DHT22;31343;47.520;19.144;2022-08-11T17:54:49;24.10;67.50
45619;DHT22;31343;47.520;19.144;2022-08-11T17:57:36;24.10;67.80
45619;DHT22;31343;47.520;19.144;2022-08-11T18:00:21;24.10;67.90
45619;DHT22;31343;47.520;19.144;2022-08-11T18:02:50;24.00;68.20
45619;DHT22;31343;47.520;19.144;2022-08-11T18:05:36;24.00;68.30
45619;DHT22;31343;47.520;19.144;2022-08-11T18:08:05;23.90;68.50
45619;DHT22;31343;47.520;19.144;2022-08-11T18:10:52;23.90;68.70
45619;DHT22;31343;47.520;19.144;2022-08-11T18:13:39;23.90;68.50
45619;DHT22;31343;47.520;19.144;2022-08-11T18:16:24;23.80;68.40
45619;DHT22;31343;47.520;19.144;2022-08-11T18:19:09;23.60;68.70
45619;DHT22;31343;47.520;19.144;2022-08-11T18:21:59;23.70;68.60
45619;DHT22;31343;47.520;19.144;2022-08-11T18:24:47;23.60;68.80
45619;DHT22;31343;47.520;19.144;2022-08-11T18:27:35;23.60;68.50
45619;DHT22;31343;47.520;19.144;2022-08-11T18:30:22;23.60;68.60
45619;DHT22;31343;47.520;19.144;2022-08-11T18:33:08;23.60;68.70
45619;DHT22;31343;47.520;19.144;2022-08-11T18:35:57;23.60;68.80
45619;DHT22;31343;47.520;19.144;2022-08-11T18:38:45;23.60;68.60
45619;DHT22;31343;47.520;19.144;2022-08-11T18:41:31;23.60;69.30
45619;DHT22;31343;47.520;19.144;2022-08-11T18:44:20;23.50;68.50
45619;DHT22;31343;47.520;19.144;2022-08-11T18:47:10;23.50;68.50
45619;DHT22;31343;47.520;19.144;2022-08-11T18:49:57;23.50;68.60
45619;DHT22;31343;47.520;19.144;2022-08-11T18:52:44;23.50;68.40
45619;DHT22;31343;47.520;19.144;2022-08-11T18:55:33;23.50;68.20
45619;DHT22;31343;47.520;19.144;2022-08-11T18:58:22;23.50;68.30
45619;DHT22;31343;47.520;19.144;2022-08-11T19:01:07;23.50;68.10
45619;DHT22;31343;47.520;19.144;2022-08-11T19:03:53;23.50;68.20
45619;DHT22;31343;47.520;19.144;2022-08-11T19:06:40;23.50;68.10
45619;DHT22;31343;47.520;19.144;2022-08-11T19:09:25;23.40;68.20
45619;DHT22;31343;47.520;19.144;2022-08-11T19:12:12;23.40;68.20
45619;DHT22;31343;47.520;19.144;2022-08-11T19:14:57;23.30;68.30
45619;DHT22;31343;47.520;19.144;2022-08-11T19:17:43;23.30;68.70
45619;DHT22;31343;47.520;19.144;2022-08-11T19:20:30;23.40;68.70
45619;DHT22;31343;47.520;19.144;2022-08-11T19:23:24;23.30;68.50
45619;DHT22;31343;47.520;19.144;2022-08-11T19:26:08;23.30;68.90